createdAt,value
2018-05-10T08:18:32.343Z,52.70
2018-05-10T08:20:59.853Z,53.60
2018-05-10T08:23:27.310Z,53.30
2018-05-10T08:25:57.486Z,52.80
2018-05-10T08:28:24.958Z,52.10
2018-05-10T08:30:52.521Z,53.80
2018-05-10T08:33:21.439Z,55.20
2018-05-10T08:35:49.686Z,55.10
2018-05-10T08:38:17.429Z,55.10
2018-05-10T08:40:48.533Z,55.40
2018-05-10T08:43:16.835Z,53.40
2018-05-10T08:45:46.234Z,53.30
2018-05-10T08:48:13.853Z,52.60
2018-05-10T08:50:42.098Z,50.70
2018-05-10T08:53:09.550Z,50.80
2018-05-10T08:55:37.534Z,48.60
2018-05-10T08:58:04.993Z,47.80
2018-05-10T09:00:33.326Z,49.20
2018-05-10T09:03:00.777Z,49.30
2018-05-10T09:05:28.262Z,49.90
2018-05-10T09:07:56.677Z,49.60
2018-05-10T09:10:24.922Z,47.00
2018-05-10T09:12:52.486Z,46.90
2018-05-10T09:15:19.967Z,46.90
2018-05-10T09:17:48.170Z,43.20
2018-05-10T09:20:15.829Z,43.30
2018-05-10T09:22:44.185Z,41.90
2018-05-10T09:25:14.364Z,41.10
2018-05-10T09:27:41.815Z,40.90
2018-05-10T09:30:09.298Z,39.70
2018-05-10T09:32:37.735Z,41.00
2018-05-10T09:35:06.193Z,43.80
2018-05-10T09:37:33.698Z,45.60
2018-05-10T09:40:01.257Z,45.40
2018-05-10T09:42:28.931Z,47.90
2018-05-10T09:44:56.425Z,48.30
2018-05-10T09:47:23.925Z,44.00
2018-05-10T09:49:51.428Z,43.40
2018-05-10T09:52:19.053Z,43.60
2018-05-10T09:54:46.509Z,41.90
2018-05-10T09:57:14.058Z,44.70
2018-05-10T09:59:41.604Z,46.00
2018-05-10T10:02:09.073Z,45.30
2018-05-10T10:04:36.534Z,43.70
2018-05-10T10:07:04.098Z,45.50
2018-05-10T10:09:31.554Z,46.50
2018-05-10T10:11:59.091Z,47.50
2018-05-10T10:14:26.562Z,48.00
2018-05-10T10:16:54.926Z,48.10
2018-05-10T10:19:23.211Z,47.40
2018-05-10T10:21:50.673Z,47.30
2018-05-10T10:24:18.142Z,47.40
2018-05-10T10:26:46.371Z,49.90
2018-05-10T10:29:24.239Z,49.80
2018-05-10T10:31:52.650Z,50.50
2018-05-10T10:34:20.233Z,51.40
2018-05-10T10:36:47.680Z,53.30
2018-05-10T10:39:15.222Z,51.90
2018-05-10T10:41:42.781Z,52.70
2018-05-10T10:44:10.565Z,52.40
2018-05-10T10:46:38.000Z,53.40
2018-05-10T10:49:05.443Z,52.90
2018-05-10T10:51:32.913Z,54.30
2018-05-10T10:54:00.509Z,55.00
2018-05-10T10:56:27.948Z,56.30
2018-05-10T10:58:56.377Z,56.50
2018-05-10T14:48:06.732Z,60.00
2018-05-10T14:50:34.205Z,60.00
2018-05-10T14:53:01.768Z,58.60
2018-05-10T14:55:29.310Z,55.50
2018-05-10T14:57:56.865Z,54.00
2018-05-10T15:00:24.437Z,54.00
2018-05-10T15:02:52.016Z,51.50
2018-05-10T15:05:19.542Z,50.10
2018-05-10T15:07:46.990Z,49.80
2018-05-10T15:10:14.559Z,47.70
2018-05-10T15:12:42.111Z,48.40
2018-05-10T15:15:09.605Z,47.90
2018-05-10T15:17:37.879Z,47.50
2018-05-10T15:20:06.117Z,47.40
2018-05-10T15:22:33.666Z,47.30
2018-05-10T15:25:01.124Z,46.90
2018-05-10T15:27:28.582Z,47.50
2018-05-10T15:29:59.818Z,47.50
2018-05-10T15:32:27.607Z,48.10
2018-05-10T15:34:55.056Z,49.10
2018-05-10T15:37:22.654Z,49.70
2018-05-10T15:39:50.358Z,50.40
2018-05-10T15:42:17.818Z,50.10
2018-05-10T15:44:46.244Z,49.70
